Time;durP1;ratioP1;P1;durP2;ratioP2;P2;SDS_P1;SDS_P2;PMS_P1;PMS_P2;Temp;Humidity;BMP_temperature;BMP_pressure;BME280_temperature;BME280_humidity;BME280_pressure;Samples;Min_cycle;Max_cycle;Signal;HPM_P1;HPM_P2
2021/10/06 00:01:57;;;;;;;0.80;0.80;;;;;;;12.27;76.75;98640.09;5068616;28;41241;-78
2021/10/06 00:04:26;;;;;;;0.50;0.30;;;;;;;12.22;76.72;98649.28;5067878;28;38715;-78
2021/10/06 00:06:53;;;;;;;0.40;0.40;;;;;;;12.20;76.73;98650.34;5052526;28;41727;-80
2021/10/06 00:09:20;;;;;;;0.43;0.43;;;;;;;12.16;76.71;98649.69;5068856;28;43830;-78
2021/10/06 00:11:48;;;;;;;0.43;0.43;;;;;;;12.15;76.97;98655.13;5068560;28;42353;-79
2021/10/06 00:14:16;;;;;;;1.43;0.40;;;;;;;12.13;76.45;98657.03;5068894;28;41077;-79
2021/10/06 00:16:43;;;;;;;0.30;0.30;;;;;;;12.11;76.60;98648.34;5051358;28;40546;-78
2021/10/06 00:19:11;;;;;;;0.50;0.50;;;;;;;12.23;76.21;98650.13;5068518;28;43855;-79
2021/10/06 00:21:40;;;;;;;0.63;0.63;;;;;;;12.23;76.72;98660.75;5067947;28;41260;-77
2021/10/06 00:24:08;;;;;;;0.83;0.43;;;;;;;12.16;76.25;98659.47;5051416;28;40326;-81
2021/10/06 00:26:35;;;;;;;0.40;0.40;;;;;;;12.11;76.74;98664.28;5068243;28;40527;-78
2021/10/06 00:29:03;;;;;;;0.37;0.37;;;;;;;12.05;77.04;98660.25;5069079;28;43032;-77
2021/10/06 00:31:30;;;;;;;0.47;0.47;;;;;;;12.00;77.16;98666.81;5069694;28;43498;-77
2021/10/06 00:33:58;;;;;;;0.60;0.60;;;;;;;11.96;77.22;98665.38;5051820;28;39358;-81
2021/10/06 00:36:25;;;;;;;0.47;0.40;;;;;;;11.90;77.08;98663.97;5051688;28;40861;-78
2021/10/06 00:38:54;;;;;;;0.50;0.50;;;;;;;11.87;77.33;98666.84;5067955;28;44048;-78
2021/10/06 00:41:22;;;;;;;0.40;0.40;;;;;;;11.83;77.41;98673.34;5069065;28;42346;-80
2021/10/06 00:43:49;;;;;;;1.03;0.50;;;;;;;11.66;77.14;98653.25;5067714;28;40592;-79
2021/10/06 00:46:17;;;;;;;0.70;0.50;;;;;;;11.74;77.22;98672.16;5068143;28;41718;-79
2021/10/06 00:48:45;;;;;;;0.70;0.50;;;;;;;11.66;77.41;98673.63;5051654;28;42695;-78
2021/10/06 00:51:13;;;;;;;0.40;0.40;;;;;;;11.67;77.89;98692.09;5051493;28;41057;-81
2021/10/06 00:53:41;;;;;;;0.67;0.40;;;;;;;11.64;78.02;98691.44;5068750;28;40851;-78
2021/10/06 00:56:10;;;;;;;0.40;0.40;;;;;;;11.65;78.02;98698.47;5051375;28;41153;-79
2021/10/06 00:58:38;;;;;;;0.33;0.33;;;;;;;11.66;78.16;98703.66;5051385;28;42232;-79
2021/10/06 01:01:05;;;;;;;0.30;0.30;;;;;;;11.61;78.40;98707.59;5067553;28;43174;-78
2021/10/06 01:03:33;;;;;;;0.67;0.60;;;;;;;11.62;78.35;98714.59;5068778;28;39840;-79
2021/10/06 01:06:00;;;;;;;0.47;0.47;;;;;;;11.60;78.86;98712.06;5067163;28;41813;-81
2021/10/06 01:08:28;;;;;;;0.50;0.50;;;;;;;11.59;78.29;98706.84;5050949;28;42103;-77
2021/10/06 01:10:56;;;;;;;1.70;0.43;;;;;;;11.48;78.53;98686.38;5070835;28;42277;-81
2021/10/06 01:13:26;;;;;;;0.50;0.50;;;;;;;11.58;78.54;98700.69;5071028;28;39959;-78
2021/10/06 01:15:54;;;;;;;0.40;0.40;;;;;;;11.61;78.96;98703.16;5071069;28;42414;-80
2021/10/06 01:18:22;;;;;;;0.97;0.57;;;;;;;11.63;79.24;98701.22;5054416;28;43235;-80
2021/10/06 01:20:49;;;;;;;0.40;0.40;;;;;;;11.67;78.96;98705.38;5054007;28;41177;-78
2021/10/06 01:23:59;;;;;;;0.60;0.43;;;;;;;11.72;78.87;98710.34;5054082;28;39318;-79
2021/10/06 01:26:41;;;;;;;0.40;0.40;;;;;;;11.69;78.73;98715.88;5089411;28;42374;-79
2021/10/06 01:29:08;;;;;;;0.50;0.50;;;;;;;11.66;78.73;98714.28;5090148;28;44095;-80
2021/10/06 01:31:36;;;;;;;0.40;0.40;;;;;;;11.64;78.56;98718.84;5088982;28;41978;-78
2021/10/06 01:34:03;;;;;;;0.60;0.60;;;;;;;11.64;78.99;98715.31;5089913;28;41123;-78
2021/10/06 01:36:30;;;;;;;0.30;0.30;;;;;;;11.63;78.81;98719.78;5073046;28;41683;-79
2021/10/06 01:38:59;;;;;;;1.80;0.50;;;;;;;11.61;79.10;98727.03;5078054;28;42068;-80
2021/10/06 01:41:30;;;;;;;0.87;0.50;;;;;;;11.60;78.72;98738.59;5059209;28;41109;-78
2021/10/06 01:43:58;;;;;;;0.43;0.43;;;;;;;11.61;78.57;98729.69;5075455;28;40217;-78
2021/10/06 01:46:25;;;;;;;0.70;0.70;;;;;;;11.63;78.63;98729.53;5074386;28;40364;-78
2021/10/06 01:48:53;;;;;;;0.30;0.30;;;;;;;11.70;78.57;98734.34;5057338;28;42815;-80
2021/10/06 01:51:20;;;;;;;0.40;0.40;;;;;;;11.76;78.66;98739.25;5069629;28;43154;-78
2021/10/06 01:53:48;;;;;;;0.83;0.50;;;;;;;11.80;78.59;98735.44;5053976;28;40279;-78
2021/10/06 01:56:16;;;;;;;0.50;0.50;;;;;;;11.84;78.40;98736.94;5052857;28;41604;-78
2021/10/06 01:58:47;;;;;;;0.40;0.40;;;;;;;11.84;78.42;98736.94;5052962;28;41738;-78
2021/10/06 02:01:15;;;;;;;0.40;0.40;;;;;;;11.82;78.29;98746.78;5053202;28;41508;-79
2021/10/06 02:03:43;;;;;;;0.30;0.30;;;;;;;11.74;77.89;98725.22;5070698;28;40202;-79
2021/10/06 02:06:10;;;;;;;0.40;0.40;;;;;;;11.72;77.88;98726.28;5069320;28;40915;-79
2021/10/06 02:08:37;;;;;;;0.30;0.30;;;;;;;11.69;77.92;98729.97;5074353;28;43689;-79
2021/10/06 02:11:05;;;;;;;0.40;0.40;;;;;;;11.65;78.21;98731.13;5077326;28;42499;-79
2021/10/06 02:13:34;;;;;;;0.40;0.40;;;;;;;11.63;78.39;98730.38;5071578;28;40183;-81
2021/10/06 02:16:01;;;;;;;0.77;0.60;;;;;;;11.63;78.52;98727.75;5053263;28;41829;-81
2021/10/06 02:18:29;;;;;;;0.43;0.40;;;;;;;11.61;78.63;98729.69;5053549;28;42844;-80
2021/10/06 02:20:57;;;;;;;0.63;0.50;;;;;;;11.54;78.44;98723.06;5069855;28;42088;-79
2021/10/06 02:23:25;;;;;;;0.50;0.50;;;;;;;11.44;78.59;98700.78;5053287;28;39111;-80
2021/10/06 02:25:52;;;;;;;0.43;0.43;;;;;;;11.57;78.68;98720.22;5053078;28;41945;-80
2021/10/06 02:28:20;;;;;;;0.40;0.40;;;;;;;11.57;78.61;98728.19;5069648;28;42678;-81
2021/10/06 02:30:49;;;;;;;0.60;0.60;;;;;;;11.64;78.41;98744.50;5053591;28;41047;-78
2021/10/06 02:33:17;;;;;;;0.40;0.40;;;;;;;11.63;78.74;98742.81;5070293;28;39726;-80
2021/10/06 02:35:45;;;;;;;1.30;0.50;;;;;;;11.62;78.28;98739.28;5069501;28;41891;-78
2021/10/06 02:38:12;;;;;;;0.40;0.40;;;;;;;11.53;78.52;98734.63;5070089;28;42848;-78
2021/10/06 02:40:39;;;;;;;0.70;0.70;;;;;;;11.60;78.49;98743.03;5053156;28;41179;-79
2021/10/06 02:43:07;;;;;;;0.50;0.50;;;;;;;11.64;79.11;98745.34;5069964;28;40105;-78
2021/10/06 02:45:34;;;;;;;0.60;0.60;;;;;;;11.71;78.66;98744.00;5071149;28;41934;-78
2021/10/06 02:48:03;;;;;;;0.30;0.30;;;;;;;11.80;78.30;98750.50;5069897;28;42638;-78
2021/10/06 02:50:30;;;;;;;0.30;0.30;;;;;;;11.90;78.27;98750.69;5051811;28;41444;-80
2021/10/06 02:52:58;;;;;;;0.43;0.43;;;;;;;11.95;78.08;98752.09;5069073;28;39127;-79
2021/10/06 02:55:25;;;;;;;0.50;0.50;;;;;;;11.99;78.29;98750.09;5068886;28;41773;-79
2021/10/06 02:57:52;;;;;;;0.40;0.40;;;;;;;12.03;77.89;98757.69;5052686;28;41841;-79
2021/10/06 03:00:20;;;;;;;0.57;0.40;;;;;;;12.08;77.82;98760.06;5068742;28;42194;-80
2021/10/06 03:02:47;;;;;;;0.40;0.40;;;;;;;12.12;77.87;98762.34;5069668;28;39997;-79
2021/10/06 03:05:16;;;;;;;0.50;0.50;;;;;;;12.12;78.00;98756.19;5069151;28;41849;-79
2021/10/06 03:07:45;;;;;;;0.40;0.40;;;;;;;12.06;78.04;98761.97;5052525;28;41884;-79
2021/10/06 03:10:13;;;;;;;0.40;0.40;;;;;;;11.99;78.63;98756.22;5070155;28;42242;-78
2021/10/06 03:12:42;;;;;;;0.40;0.40;;;;;;;11.94;78.33;98760.16;5068376;28;40675;-79
2021/10/06 03:15:11;;;;;;;0.50;0.50;;;;;;;11.87;78.52;98762.38;5068487;28;40149;-78
2021/10/06 03:17:38;;;;;;;0.47;0.47;;;;;;;11.81;78.68;98771.63;5052159;28;43073;-79
2021/10/06 03:20:07;;;;;;;0.40;0.40;;;;;;;11.70;78.64;98765.31;5068999;28;42299;-78
2021/10/06 03:22:36;;;;;;;0.40;0.40;;;;;;;11.56;78.88;98758.31;5070044;28;40428;-78
2021/10/06 03:25:05;;;;;;;0.30;0.30;;;;;;;11.54;78.93;98770.81;5069778;28;42789;-79
2021/10/06 03:27:33;;;;;;;0.40;0.40;;;;;;;11.49;79.10;98767.63;5068682;28;43890;-81
2021/10/06 03:30:01;;;;;;;0.70;0.40;;;;;;;11.24;79.22;98741.94;5068734;28;42566;-80
2021/10/06 03:32:28;;;;;;;0.40;0.40;;;;;;;11.45;79.41;98779.41;5068049;28;39982;-80
2021/10/06 03:34:56;;;;;;;0.77;0.40;;;;;;;11.44;79.06;98780.34;5052137;28;40976;-80
2021/10/06 03:37:23;;;;;;;0.30;0.30;;;;;;;11.46;78.78;98775.78;5052120;28;41649;-79
2021/10/06 03:39:52;;;;;;;0.40;0.40;;;;;;;11.26;79.03;98760.34;5068153;28;43033;-77
2021/10/06 03:42:19;;;;;;;0.30;0.30;;;;;;;11.41;78.99;98793.81;5069794;28;40604;-81
2021/10/06 03:44:47;;;;;;;1.17;0.40;;;;;;;11.36;78.68;98803.88;5069071;28;40769;-79
2021/10/06 03:47:14;;;;;;;0.30;0.30;;;;;;;11.21;78.63;98778.38;5051536;28;42032;-77
2021/10/06 03:49:41;;;;;;;0.40;0.40;;;;;;;11.36;79.01;98793.28;5051661;28;41527;-77
2021/10/06 03:52:09;;;;;;;0.60;0.60;;;;;;;11.52;78.96;98809.84;5068538;28;39876;-78
2021/10/06 03:54:36;;;;;;;1.20;0.30;;;;;;;11.64;78.62;98814.31;5069245;28;41554;-79
2021/10/06 03:57:05;;;;;;;0.43;0.43;;;;;;;11.75;78.34;98817.13;5068207;28;41588;-77
2021/10/06 03:59:32;;;;;;;0.50;0.40;;;;;;;11.85;78.11;98823.53;5068323;28;42516;-78
2021/10/06 04:02:00;;;;;;;0.30;0.30;;;;;;;11.84;77.76;98805.91;5069360;28;41209;-77
2021/10/06 04:04:27;;;;;;;0.40;0.40;;;;;;;11.88;77.98;98828.59;5068567;28;40477;-80
2021/10/06 04:06:54;;;;;;;0.93;0.50;;;;;;;11.72;78.19;98817.31;5068103;28;43573;-77
2021/10/06 04:09:22;;;;;;;0.37;0.37;;;;;;;11.67;78.54;98835.34;5069408;28;43138;-78
2021/10/06 04:11:50;;;;;;;0.40;0.40;;;;;;;11.59;78.39;98832.38;5068136;28;40107;-78
2021/10/06 04:14:18;;;;;;;0.87;0.50;;;;;;;11.40;78.71;98818.63;5067853;28;41491;-80
2021/10/06 04:16:46;;;;;;;0.23;0.23;;;;;;;11.46;78.85;98839.44;5050764;28;41939;-81
2021/10/06 04:19:14;;;;;;;0.80;0.47;;;;;;;11.38;78.99;98834.63;5069280;28;41937;-80
2021/10/06 04:21:41;;;;;;;1.73;0.80;;;;;;;11.33;79.19;98841.19;5069237;28;40152;-78
2021/10/06 04:24:09;;;;;;;0.50;0.50;;;;;;;11.25;78.96;98843.50;5051160;28;40555;-80
2021/10/06 04:26:36;;;;;;;0.40;0.40;;;;;;;11.29;79.24;98843.19;5068202;28;42977;-76
2021/10/06 04:29:04;;;;;;;0.43;0.43;;;;;;;11.36;78.95;98854.25;5067464;28;42898;-79
2021/10/06 07:58:46;;;;;;;0.70;0.70;;;;;;;16.96;71.95;99064.84;5105786;28;20576;-82
2021/10/06 08:01:14;;;;;;;0.53;0.43;;;;;;;20.37;60.69;99094.03;5099163;28;39936;-82
2021/10/06 08:03:42;;;;;;;0.53;0.50;;;;;;;23.27;50.73;99116.44;5084504;28;40834;-82
2021/10/06 08:06:09;;;;;;;0.60;0.60;;;;;;;25.29;44.70;99149.09;5085539;28;42859;-84
2021/10/06 08:08:37;;;;;;;1.07;0.97;;;;;;;27.47;41.81;99166.38;5085211;28;42154;-86
2021/10/06 08:11:05;;;;;;;1.40;0.77;;;;;;;27.37;39.63;99176.75;5069033;28;38878;-86
2021/10/06 08:13:33;;;;;;;0.60;0.60;;;;;;;27.64;37.71;99187.91;5085263;28;41552;-83
2021/10/06 08:16:02;;;;;;;0.57;0.50;;;;;;;27.75;37.05;99187.34;5118217;27;41659;-88
2021/10/06 08:18:30;;;;;;;0.50;0.47;;;;;;;27.26;38.96;99173.72;5067056;28;42133;-88
2021/10/06 08:20:57;;;;;;;0.70;0.70;;;;;;;26.17;38.23;99163.81;5064317;28;38853;-87
2021/10/06 08:23:30;;;;;;;0.90;0.40;;;;;;;24.70;39.23;99162.38;5098418;28;42080;-90
2021/10/06 08:25:58;;;;;;;0.60;0.40;;;;;;;23.49;41.72;99143.81;5051864;28;42009;-88
2021/10/06 08:28:26;;;;;;;0.43;0.43;;;;;;;22.49;42.32;99150.28;5067729;28;41051;-85
2021/10/06 08:30:54;;;;;;;0.67;0.43;;;;;;;21.58;44.55;99139.19;5083701;28;40888;-85
2021/10/06 08:33:23;;;;;;;0.80;0.50;;;;;;;20.95;45.70;99142.03;5084102;28;41834;-84
2021/10/06 08:35:50;;;;;;;0.90;0.50;;;;;;;20.24;46.23;99133.88;5084080;28;43159;-85
2021/10/06 08:38:19;;;;;;;0.97;0.80;;;;;;;19.64;46.97;99136.13;5084461;28;41286;-84
2021/10/06 08:40:46;;;;;;;2.30;0.40;;;;;;;19.14;48.30;99130.13;5106277;27;39398;-85
2021/10/06 08:43:14;;;;;;;0.40;0.37;;;;;;;18.79;48.84;99130.69;5104045;28;41898;-84
2021/10/06 08:45:42;;;;;;;1.30;0.40;;;;;;;18.59;49.80;99124.47;5086773;28;43427;-85
2021/10/06 08:48:11;;;;;;;0.60;0.60;;;;;;;18.68;50.02;99136.19;5083466;28;43245;-83
2021/10/06 08:50:41;;;;;;;0.60;0.60;;;;;;;18.71;50.76;99138.59;5117226;27;39177;-76
2021/10/06 08:53:09;;;;;;;0.80;0.60;;;;;;;18.83;50.26;99153.56;5082111;28;41803;-78
2021/10/06 08:55:36;;;;;;;0.60;0.60;;;;;;;18.89;49.77;99150.34;5082757;28;41742;-82
2021/10/06 08:58:06;;;;;;;0.70;0.50;;;;;;;19.35;48.92;99154.09;5067155;28;41165;-83
2021/10/06 09:00:53;;;;;;;0.50;0.50;;;;;;;19.27;49.56;99145.94;5099153;28;39926;-83
2021/10/06 09:03:31;;;;;;;2.53;1.13;;;;;;;19.10;49.03;99149.34;5103517;28;42115;-86
2021/10/06 09:06:05;;;;;;;0.90;0.67;;;;;;;18.79;49.28;99146.78;5099968;28;43164;-82
2021/10/06 09:08:33;;;;;;;1.30;0.93;;;;;;;18.47;49.46;99151.53;5079313;28;43216;-79
2021/10/06 09:11:01;;;;;;;1.77;1.63;;;;;;;18.16;50.04;99138.22;5070650;28;40054;-79
2021/10/06 09:13:31;;;;;;;0.73;0.63;;;;;;;18.03;50.52;99151.00;5070031;28;40828;-84
2021/10/06 09:15:59;;;;;;;1.07;0.60;;;;;;;17.84;51.06;99156.25;5054369;28;41585;-83
2021/10/06 09:18:28;;;;;;;0.40;0.40;;;;;;;17.72;51.72;99151.97;5071415;28;41871;-82
2021/10/06 09:20:58;;;;;;;0.80;0.50;;;;;;;17.76;51.67;99145.38;5070454;28;38712;-86
2021/10/06 09:23:29;;;;;;;0.40;0.40;;;;;;;17.91;51.75;99155.63;5069885;28;42060;-85
2021/10/06 09:25:59;;;;;;;0.40;0.40;;;;;;;18.02;51.69;99141.25;5054170;28;42942;-85
2021/10/06 09:28:29;;;;;;;0.50;0.50;;;;;;;18.12;51.84;99147.50;5056770;28;41549;-86
2021/10/06 09:30:59;;;;;;;0.80;0.80;;;;;;;18.03;52.80;99132.25;5090075;28;39881;-87
2021/10/06 09:33:39;;;;;;;2.50;0.80;;;;;;;18.14;53.33;99150.91;5106684;28;40654;-84
2021/10/06 09:36:10;;;;;;;1.10;0.77;;;;;;;18.33;52.71;99160.81;5073929;28;41893;-86
2021/10/06 09:38:42;;;;;;;2.13;0.60;;;;;;;18.29;52.45;99130.75;5051017;28;42226;-83
2021/10/06 09:41:25;;;;;;;1.27;1.00;;;;;;;18.35;52.19;99125.81;5032320;28;39824;-84
2021/10/06 09:43:57;;;;;;;0.40;0.40;;;;;;;18.63;52.07;99150.03;5085483;28;41734;-85
2021/10/06 09:46:24;;;;;;;1.90;0.80;;;;;;;18.63;50.95;99146.50;5103381;28;42896;-83
2021/10/06 09:48:53;;;;;;;0.97;0.80;;;;;;;18.57;51.05;99157.75;5092855;28;41594;-79
2021/10/06 09:51:25;;;;;;;0.73;0.70;;;;;;;18.43;51.55;99158.13;5136295;27;40523;-81
2021/10/06 09:53:55;;;;;;;0.33;0.33;;;;;;;18.19;51.51;99155.81;5088866;28;41588;-84
2021/10/06 09:56:22;;;;;;;0.50;0.50;;;;;;;18.34;51.65;99169.69;5070600;28;41643;-83
2021/10/06 09:59:02;;;;;;;1.27;0.77;;;;;;;18.64;52.71;99153.56;5085056;28;41263;-83
2021/10/06 10:01:30;;;;;;;0.53;0.53;;;;;;;19.08;51.34;99152.16;5078532;28;40151;-83
2021/10/06 10:03:58;;;;;;;1.73;0.67;;;;;;;19.27;50.55;99172.78;5062311;28;40664;-82
2021/10/06 10:06:26;;;;;;;0.50;0.50;;;;;;;19.25;48.85;99196.25;5078615;28;42958;-81
2021/10/06 10:08:56;;;;;;;0.77;0.77;;;;;;;18.99;50.06;99195.97;5061206;28;41208;-80
2021/10/06 10:11:23;;;;;;;0.60;0.40;;;;;;;18.68;51.92;99187.16;5074981;28;39868;-85
2021/10/06 10:13:51;;;;;;;1.07;0.67;;;;;;;18.30;52.37;99159.25;5069329;28;41405;-83
2021/10/06 10:16:19;;;;;;;0.40;0.40;;;;;;;18.33;52.85;99166.16;5068638;28;43940;-83
2021/10/06 10:18:47;;;;;;;0.70;0.50;;;;;;;18.42;52.92;99159.16;5070265;28;41340;-85
2021/10/06 10:21:16;;;;;;;0.60;0.60;;;;;;;18.43;52.14;99160.81;5049889;28;38756;-84
2021/10/06 10:23:44;;;;;;;0.60;0.60;;;;;;;18.55;51.98;99191.91;5070042;28;41439;-85
2021/10/06 10:26:24;;;;;;;0.90;0.53;;;;;;;18.59;51.25;99190.69;5052216;28;41973;-87
2021/10/06 10:28:52;;;;;;;0.47;0.47;;;;;;;18.80;51.29;99177.16;5070707;28;42282;-85
2021/10/06 10:31:22;;;;;;;0.40;0.40;;;;;;;19.18;49.73;99187.91;5068498;28;39939;-88
2021/10/06 10:33:53;;;;;;;0.30;0.30;;;;;;;19.51;49.10;99175.03;5052196;28;40767;-81
2021/10/06 10:36:46;;;;;;;0.30;0.30;;;;;;;20.82;46.92;99206.19;5067641;28;43443;-83
2021/10/06 10:39:54;;;;;;;1.10;0.57;;;;;;;23.12;42.30;99239.72;5051259;28;41059;-79
2021/10/06 10:42:56;;;;;;;0.53;0.53;;;;;;;25.69;38.55;99258.28;4974723;28;38962;-81
2021/10/06 10:45:42;;;;;;;1.07;0.50;;;;;;;27.81;34.56;99279.13;5051947;28;40843;-81
2021/10/06 10:48:11;;;;;;;0.40;0.40;;;;;;;29.60;30.88;99287.25;5074289;28;43862;-85
2021/10/06 10:51:05;;;;;;;0.97;0.50;;;;;;;31.22;29.64;99296.56;5072171;28;41406;-88
2021/10/06 10:53:59;;;;;;;2.40;1.80;;;;;;;31.40;26.87;99312.25;5089238;28;40784;-89
2021/10/06 10:56:43;;;;;;;0.90;0.90;;;;;;;32.03;25.90;99298.56;5080949;28;40838;-82
2021/10/06 10:59:13;;;;;;;0.50;0.50;;;;;;;31.07;27.36;99304.16;5065288;28;43104;-80
2021/10/06 11:01:43;;;;;;;1.50;0.50;;;;;;;29.79;27.63;99283.72;5067617;28;41414;-78
2021/10/06 11:04:13;;;;;;;0.53;0.40;;;;;;;28.01;30.21;99280.13;5050671;28;40368;-82
2021/10/06 11:06:42;;;;;;;0.83;0.47;;;;;;;27.01;32.24;99280.13;5051410;28;40745;-82
2021/10/06 11:09:42;;;;;;;0.60;0.60;;;;;;;28.53;31.20;99282.41;5050705;28;42207;-82
2021/10/06 11:12:32;;;;;;;1.10;0.53;;;;;;;29.50;29.00;99301.31;5068685;28;42354;-77
2021/10/06 11:15:25;;;;;;;0.73;0.60;;;;;;;28.33;30.89;99288.75;5067349;28;40649;-77
2021/10/06 11:18:23;;;;;;;0.93;0.60;;;;;;;29.91;28.19;99303.06;5042266;28;42115;-78
2021/10/06 11:20:56;;;;;;;0.40;0.40;;;;;;;30.09;28.55;99286.91;5050002;28;43381;-77
2021/10/06 11:23:53;;;;;;;0.77;0.40;;;;;;;29.06;28.51;99299.03;5050341;28;41789;-77
2021/10/06 11:26:30;;;;;;;0.97;0.40;;;;;;;27.76;30.79;99273.41;5074302;28;39581;-77
2021/10/06 11:29:01;;;;;;;1.43;0.93;;;;;;;27.82;31.39;99262.56;5054896;28;41640;-82
2021/10/06 11:31:32;;;;;;;1.37;0.50;;;;;;;28.32;29.96;99290.63;5050097;28;42015;-84
2021/10/06 11:34:02;;;;;;;0.77;0.70;;;;;;;28.95;29.77;99286.84;5067649;28;42457;-84
2021/10/06 11:36:31;;;;;;;0.67;0.40;;;;;;;30.88;26.17;99295.00;5067209;28;39993;-84
2021/10/06 11:39:05;;;;;;;0.40;0.40;;;;;;;32.87;24.31;99310.88;5051919;28;41959;-91
2021/10/06 11:41:34;;;;;;;0.50;0.50;;;;;;;34.47;22.40;99304.56;5051489;28;41991;-84
2021/10/06 11:44:01;;;;;;;0.83;0.73;;;;;;;34.00;22.92;99311.88;5069413;28;43157;-83
2021/10/06 11:46:33;;;;;;;0.87;0.53;;;;;;;33.71;22.77;99310.00;5067428;28;39915;-83
2021/10/06 11:49:02;;;;;;;0.97;0.60;;;;;;;33.21;23.37;99303.91;5067186;28;42105;-84
2021/10/06 11:51:46;;;;;;;0.60;0.60;;;;;;;33.60;22.09;99311.63;5076332;28;42205;-84
2021/10/06 11:54:15;;;;;;;0.53;0.53;;;;;;;34.19;21.27;99320.88;5089206;28;42486;-85
2021/10/06 11:56:43;;;;;;;0.50;0.50;;;;;;;33.19;22.00;99332.44;5077330;28;39118;-90
2021/10/06 11:59:14;;;;;;;1.80;1.70;;;;;;;31.21;24.13;99327.72;5049843;28;40995;-82
2021/10/06 12:01:51;;;;;;;0.60;0.50;;;;;;;29.29;26.34;99294.09;5050182;28;42223;-83
2021/10/06 12:04:20;;;;;;;0.63;0.47;;;;;;;27.69;27.69;99288.84;5051197;28;41019;-85
2021/10/06 12:06:51;;;;;;;0.50;0.50;;;;;;;26.46;29.83;99273.28;5050323;28;39180;-80
2021/10/06 12:09:19;;;;;;;1.00;0.50;;;;;;;25.99;31.52;99257.31;5067526;28;42301;-80
2021/10/06 12:11:47;;;;;;;0.47;0.47;;;;;;;26.01;32.01;99252.53;5066664;28;42581;-80
2021/10/06 12:14:19;;;;;;;1.47;0.80;;;;;;;25.97;33.00;99245.78;5067173;28;42022;-78
2021/10/06 12:17:01;;;;;;;1.30;0.60;;;;;;;25.76;32.62;99251.94;5068026;28;39562;-82
2021/10/06 12:19:29;;;;;;;0.37;0.30;;;;;;;26.03;32.68;99246.94;5051090;28;41984;-82
2021/10/06 12:21:56;;;;;;;0.90;0.60;;;;;;;27.71;30.62;99254.09;5049798;28;41923;-81
2021/10/06 12:24:26;;;;;;;0.50;0.50;;;;;;;28.81;28.96;99268.72;5067364;28;42611;-82
2021/10/06 12:26:55;;;;;;;0.40;0.40;;;;;;;30.42;27.19;99267.72;5066785;28;40155;-85
2021/10/06 12:29:25;;;;;;;0.57;0.57;;;;;;;31.92;26.00;99286.44;5067275;28;41517;-84
2021/10/06 12:32:10;;;;;;;1.20;0.60;;;;;;;31.23;25.21;99300.13;5050287;28;43287;-82
2021/10/06 12:34:37;;;;;;;0.60;0.50;;;;;;;30.61;26.36;99282.44;5084649;28;41435;-82
2021/10/06 12:37:05;;;;;;;0.60;0.60;;;;;;;30.12;26.31;99267.38;5066687;28;41212;-81
2021/10/06 12:39:33;;;;;;;0.30;0.30;;;;;;;29.53;27.47;99272.78;5066777;28;41000;-83
2021/10/06 12:42:04;;;;;;;0.50;0.50;;;;;;;28.76;29.07;99264.91;5049725;28;42267;-79
2021/10/06 12:44:39;;;;;;;1.23;0.40;;;;;;;27.80;28.73;99263.81;5069135;28;41114;-88
2021/10/06 12:47:13;;;;;;;0.93;0.37;;;;;;;26.72;29.74;99259.22;5054404;28;39203;-91
2021/10/06 12:49:48;;;;;;;1.03;0.60;;;;;;;26.84;29.85;99241.41;5057655;28;40829;-85
2021/10/06 12:52:23;;;;;;;0.73;0.30;;;;;;;28.08;29.42;99256.50;5060191;28;42069;-83
2021/10/06 12:55:07;;;;;;;0.87;0.43;;;;;;;28.79;27.97;99265.38;5052896;28;42856;-83
2021/10/06 12:57:34;;;;;;;0.50;0.50;;;;;;;28.51;28.51;99261.84;5069281;28;39618;-80
2021/10/06 13:00:04;;;;;;;0.77;0.47;;;;;;;28.02;28.00;99251.84;5053449;28;40741;-87
2021/10/06 13:02:33;;;;;;;0.50;0.50;;;;;;;28.66;28.32;99270.75;5053181;28;41744;-82
2021/10/06 13:05:01;;;;;;;0.80;0.53;;;;;;;30.71;25.94;99282.84;5052994;28;41513;-79
2021/10/06 13:07:28;;;;;;;1.43;1.33;;;;;;;31.76;24.31;99287.00;5052518;28;38849;-79
2021/10/06 13:09:56;;;;;;;0.60;0.60;;;;;;;30.11;25.33;99238.38;5069182;28;41758;-78
2021/10/06 13:12:23;;;;;;;0.60;0.60;;;;;;;29.01;27.01;99263.38;5069140;28;42923;-80
2021/10/06 13:14:51;;;;;;;0.50;0.50;;;;;;;30.25;26.46;99267.34;5069563;28;42320;-78
2021/10/06 13:17:18;;;;;;;1.40;0.70;;;;;;;31.65;24.91;99263.88;5052855;28;39131;-83
2021/10/06 13:19:48;;;;;;;0.93;0.90;;;;;;;31.24;24.55;99272.53;5053258;28;41000;-84
2021/10/06 13:22:15;;;;;;;0.60;0.60;;;;;;;30.17;25.32;99261.25;5052373;28;43464;-87
2021/10/06 13:24:43;;;;;;;1.87;0.80;;;;;;;31.12;24.44;99257.88;5054164;28;41323;-84
2021/10/06 13:27:11;;;;;;;0.37;0.37;;;;;;;31.92;23.89;99277.38;5069732;28;39064;-87
2021/10/06 13:29:38;;;;;;;0.40;0.40;;;;;;;32.41;22.71;99280.09;5054180;28;42121;-91
2021/10/06 13:32:07;;;;;;;0.50;0.50;;;;;;;32.79;21.41;99281.84;5052519;28;42317;-91
2021/10/06 13:34:35;;;;;;;0.50;0.50;;;;;;;32.13;22.35;99279.72;5069636;28;42274;-83
2021/10/06 13:37:04;;;;;;;0.40;0.40;;;;;;;30.56;24.63;99285.81;5069600;28;40744;-84
2021/10/06 13:39:32;;;;;;;0.40;0.40;;;;;;;29.34;24.43;99282.56;5070081;28;42360;-84
2021/10/06 13:42:00;;;;;;;0.50;0.50;;;;;;;28.75;25.65;99290.47;5052773;28;43154;-84
2021/10/06 13:44:28;;;;;;;0.43;0.40;;;;;;;27.87;27.06;99281.03;5053856;28;42216;-82
2021/10/06 13:46:55;;;;;;;1.07;0.70;;;;;;;26.86;28.69;99270.28;5051579;28;40293;-85
2021/10/06 13:49:23;;;;;;;0.40;0.40;;;;;;;26.04;29.81;99268.47;5053401;28;40613;-82
2021/10/06 13:51:50;;;;;;;0.40;0.40;;;;;;;25.15;31.42;99274.56;5068401;28;43082;-85
2021/10/06 13:54:19;;;;;;;0.80;0.60;;;;;;;24.23;32.09;99250.91;5053407;28;41160;-83
2021/10/06 13:56:48;;;;;;;0.73;0.40;;;;;;;23.72;33.36;99263.81;5052658;28;38745;-80
2021/10/06 13:59:15;;;;;;;1.07;1.03;;;;;;;23.17;33.65;99264.38;5069878;28;42424;-82
2021/10/06 14:01:43;;;;;;;0.60;0.47;;;;;;;22.66;34.51;99251.03;5102773;28;43265;-83
2021/10/06 14:04:11;;;;;;;0.30;0.30;;;;;;;22.19;36.31;99262.28;5052522;28;41965;-83
2021/10/06 14:06:40;;;;;;;0.53;0.47;;;;;;;21.53;38.56;99257.38;5068594;28;40910;-83
2021/10/06 14:09:07;;;;;;;0.60;0.60;;;;;;;20.86;42.07;99245.28;5069471;28;41663;-82
2021/10/06 14:11:36;;;;;;;1.27;1.17;;;;;;;19.93;45.35;99231.91;5069456;28;44290;-84
2021/10/06 14:14:04;;;;;;;2.47;0.80;;;;;;;19.09;48.13;99218.28;5053208;28;41308;-88
2021/10/06 14:16:32;;;;;;;0.50;0.50;;;;;;;18.56;49.91;99232.00;5052029;28;40444;-81
2021/10/06 14:18:59;;;;;;;2.10;0.40;;;;;;;18.07;51.33;99219.41;5069366;28;41933;-79
2021/10/06 14:21:27;;;;;;;0.50;0.50;;;;;;;17.71;52.70;99211.88;5050990;28;42005;-79
2021/10/06 14:23:56;;;;;;;0.40;0.40;;;;;;;17.32;53.55;99187.50;5067893;28;43531;-83
2021/10/06 14:26:23;;;;;;;0.93;0.50;;;;;;;17.29;54.53;99206.53;5068332;28;40703;-83
2021/10/06 14:28:52;;;;;;;0.50;0.43;;;;;;;17.16;54.98;99187.13;5052759;28;42063;-85
2021/10/06 14:31:20;;;;;;;0.60;0.60;;;;;;;17.17;55.81;99202.22;5037906;28;43277;-81
2021/10/06 14:33:47;;;;;;;0.80;0.60;;;;;;;17.23;55.24;99201.69;5049402;28;43219;-79
2021/10/06 14:36:15;;;;;;;0.50;0.50;;;;;;;17.28;56.58;99203.97;5053470;28;40064;-77
2021/10/06 14:38:42;;;;;;;0.40;0.40;;;;;;;17.24;55.48;99193.53;5068892;28;41782;-79
2021/10/06 14:41:12;;;;;;;0.30;0.30;;;;;;;17.28;55.43;99210.19;5066924;28;43395;-85
2021/10/06 14:43:40;;;;;;;1.03;0.57;;;;;;;17.27;56.46;99243.28;5052219;28;41209;-80
2021/10/06 14:46:09;;;;;;;0.67;0.57;;;;;;;16.79;56.55;99229.47;5068608;28;39699;-83
2021/10/06 14:48:36;;;;;;;0.87;0.50;;;;;;;16.37;55.96;99241.78;5101502;28;41113;-82
2021/10/06 14:51:04;;;;;;;0.40;0.40;;;;;;;16.00;57.26;99241.19;5068824;28;43686;-79
2021/10/06 14:53:32;;;;;;;0.83;0.83;;;;;;;15.79;58.51;99249.06;5068290;28;41116;-79
2021/10/06 14:55:59;;;;;;;0.40;0.40;;;;;;;15.68;58.18;99235.69;5069262;28;39894;-81
2021/10/06 14:58:27;;;;;;;1.60;0.63;;;;;;;15.52;58.29;99249.31;5088723;28;41587;-79
2021/10/06 15:00:56;;;;;;;0.40;0.40;;;;;;;15.38;58.71;99242.38;5086138;28;43759;-83
2021/10/06 15:03:26;;;;;;;0.40;0.40;;;;;;;15.53;58.76;99252.84;5051090;28;41146;-79
2021/10/06 15:05:53;;;;;;;0.97;0.87;;;;;;;15.65;58.77;99250.13;5069082;28;40054;-81
2021/10/06 15:08:20;;;;;;;0.77;0.40;;;;;;;15.87;60.14;99246.63;5069007;28;41951;-80
2021/10/06 15:10:48;;;;;;;0.50;0.50;;;;;;;15.93;58.79;99243.50;5051435;28;41917;-84
2021/10/06 15:13:18;;;;;;;0.57;0.57;;;;;;;16.06;59.65;99241.56;5051785;28;41283;-84
2021/10/06 15:15:48;;;;;;;1.70;0.63;;;;;;;16.20;58.94;99253.81;5067517;28;40323;-84